Terminal Aerodrome Forecast
Issued by NWS

Home | Current Version | Previous Version | Text Only | Print | Product List | Glossary On
Versions: 1 2 3 4 5 6 7 8 9 10 11 12 13 14 15 16 17 18 19 20 21 22 23 24 25 26 27 28
000
FTUS41 KBUF 200500
TAFJHW
TAF
KJHW 200531Z 2006/2106 20007KT P6SM -SHRA BKN050
     FM200800 18006KT P6SM VCSH OVC070
     FM201400 18007KT 4SM SHRA VCTS SCT040CB OVC060
     FM202000 19008KT P6SM VCSH BKN045 OVC250
     FM202300 19005KT 4SM -SHRA BKN025
     FM210500 19004KT 6SM -SHRA BKN070
      AMD LTD TO CLD VIS AND WIND=

USA.gov is the U.S. government's official web portal to all federal, state and local government web resources and services.